Time;durP1;ratioP1;P1;durP2;ratioP2;P2;SDS_P1;SDS_P2;PMS_P1;PMS_P2;Temp;Humidity;BMP_temperature;BMP_pressure;BME280_temperature;BME280_humidity;BME280_pressure;Samples;Min_cycle;Max_cycle;Signal;HPM_P1;HPM_P2
2023/06/05 00:03:53;;;;;;;4.82;1.60;;;;;;;12.95;47.67;101071.13;20752526;28;20502;-80
2023/06/05 00:13:56;;;;;;;3.47;1.25;;;;;;;12.91;47.37;101088.00;20734972;28;20303;-79
2023/06/05 00:23:58;;;;;;;2.17;1.35;;;;;;;12.60;48.20;101093.09;20724763;28;20301;-79
2023/06/05 00:34:01;;;;;;;5.85;1.60;;;;;;;12.39;48.52;101087.34;20758055;28;20251;-80
2023/06/05 00:44:03;;;;;;;3.85;1.67;;;;;;;13.02;46.76;101074.31;20776274;28;20229;-80
2023/06/05 00:54:06;;;;;;;3.22;1.75;;;;;;;12.61;47.72;101084.28;20759488;28;20248;-79
2023/06/05 01:04:09;;;;;;;2.00;1.67;;;;;;;11.78;49.92;101099.81;20797872;28;20219;-79
2023/06/05 01:14:17;;;;;;;3.28;1.85;;;;;;;11.77;50.25;101086.88;20796848;28;20290;-80
2023/06/05 01:24:22;;;;;;;4.68;1.55;;;;;;;11.36;51.56;101088.16;20790249;28;20223;-79
2023/06/05 01:34:26;;;;;;;4.53;2.10;;;;;;;11.62;51.35;101079.72;20804012;28;20238;-79
2023/06/05 01:44:28;;;;;;;3.60;2.00;;;;;;;12.18;49.96;101084.31;20812393;28;20238;-79
2023/06/05 01:54:33;;;;;;;6.38;2.58;;;;;;;12.17;49.69;101065.69;20806615;28;20251;-79
2023/06/05 02:04:37;;;;;;;4.72;2.40;;;;;;;12.03;49.88;101070.72;20817799;28;20201;-80
2023/06/05 02:14:44;;;;;;;7.15;2.58;;;;;;;11.57;51.19;101066.56;20807825;28;20212;-78
2023/06/05 02:24:46;;;;;;;6.38;2.40;;;;;;;11.11;52.52;101069.13;20837337;28;20248;-78
2023/06/05 02:34:48;;;;;;;7.03;3.00;;;;;;;10.87;53.01;101069.50;20813432;28;20233;-79
2023/06/05 02:44:51;;;;;;;3.05;2.35;;;;;;;10.61;53.86;101072.22;20774572;28;20533;-79
2023/06/05 02:54:53;;;;;;;4.40;2.17;;;;;;;10.44;54.03;101058.00;20759682;28;20247;-79
2023/06/05 03:04:56;;;;;;;6.70;2.88;;;;;;;10.46;54.26;101061.34;20709777;28;20244;-78
2023/06/05 03:15:02;;;;;;;5.10;3.20;;;;;;;9.81;56.13;101047.81;20668935;28;20271;-79
2023/06/05 03:25:08;;;;;;;6.23;3.10;;;;;;;10.06;55.60;101049.97;20696008;28;20598;-79
2023/06/05 03:35:10;;;;;;;6.13;3.10;;;;;;;9.61;56.81;101048.28;20732893;28;20233;-78
2023/06/05 03:45:15;;;;;;;6.67;3.07;;;;;;;9.97;55.99;101046.25;20780926;28;20270;-78
2023/06/05 03:55:19;;;;;;;4.27;3.07;;;;;;;10.17;54.43;101051.38;20764852;28;20679;-77
2023/06/05 04:05:22;;;;;;;4.83;3.10;;;;;;;9.82;55.26;101057.94;20779786;28;20486;-78
2023/06/05 04:15:25;;;;;;;6.80;3.23;;;;;;;9.84;54.07;101064.06;20786401;28;20681;-78
2023/06/05 04:25:29;;;;;;;4.05;3.08;;;;;;;9.87;54.67;101055.81;20802446;28;20274;-78
2023/06/05 04:35:33;;;;;;;5.07;3.17;;;;;;;10.03;54.66;101056.25;20787894;28;20251;-78
2023/06/05 04:45:36;;;;;;;4.30;3.08;;;;;;;10.52;53.08;101058.06;20766584;28;20189;-79
2023/06/05 04:55:38;;;;;;;4.32;3.13;;;;;;;10.23;54.48;101049.25;20782693;28;20216;-79
2023/06/05 05:05:41;;;;;;;5.45;3.30;;;;;;;9.92;54.54;101054.84;20771640;28;20270;-78
2023/06/05 05:15:43;;;;;;;6.37;3.80;;;;;;;10.53;52.85;101058.91;20778368;28;20266;-78
2023/06/05 05:25:46;;;;;;;5.53;4.68;;;;;;;10.15;54.85;101053.69;20751114;28;20274;-78
2023/06/05 05:35:49;;;;;;;7.97;5.72;;;;;;;11.01;51.96;101047.63;20802241;28;20294;-78
2023/06/05 05:45:52;;;;;;;6.72;4.78;;;;;;;10.96;51.88;101062.75;20785607;28;20211;-78
2023/06/05 05:55:54;;;;;;;7.45;4.88;;;;;;;10.81;53.45;101066.00;20848602;28;20490;-78
2023/06/05 06:05:57;;;;;;;6.75;4.60;;;;;;;11.23;51.32;101058.00;20833714;28;20193;-77
2023/06/05 06:16:00;;;;;;;10.02;4.90;;;;;;;11.59;49.97;101058.56;20833562;28;20262;-78
2023/06/05 06:26:06;;;;;;;8.75;4.75;;;;;;;11.48;50.92;101062.91;20826051;28;20477;-78
2023/06/05 06:36:08;;;;;;;7.50;4.00;;;;;;;12.08;49.11;101058.38;20763072;28;20633;-78
2023/06/05 06:46:10;;;;;;;8.65;5.85;;;;;;;12.47;48.70;101065.81;20715346;28;20189;-78
2023/06/05 06:56:15;;;;;;;5.85;4.72;;;;;;;12.72;48.38;101067.72;20746114;28;20213;-78
2023/06/05 07:06:17;;;;;;;10.80;6.07;;;;;;;12.79;48.18;101067.22;20748732;28;20244;-78
2023/06/05 07:16:20;;;;;;;12.75;6.10;;;;;;;13.49;46.20;101071.34;20737644;28;20213;-78
2023/06/05 07:26:24;;;;;;;9.38;5.90;;;;;;;13.23;47.19;101060.16;20741118;28;20201;-78
2023/06/05 07:36:27;;;;;;;8.70;5.45;;;;;;;14.06;45.04;101054.53;20767871;28;20242;-78
2023/06/05 07:46:29;;;;;;;10.32;5.60;;;;;;;14.71;43.82;101041.47;20800686;28;20193;-78
2023/06/05 07:56:33;;;;;;;9.60;4.40;;;;;;;14.25;45.87;101040.63;20803405;28;20505;-78
2023/06/05 08:06:37;;;;;;;5.07;4.00;;;;;;;14.43;43.50;101041.28;20788852;28;20189;-78
2023/06/05 08:16:40;;;;;;;11.73;3.47;;;;;;;15.75;40.82;101032.25;20794076;28;20223;-78
2023/06/05 08:26:42;;;;;;;9.45;4.25;;;;;;;15.56;43.05;101032.88;20824691;28;20189;-78
2023/06/05 08:36:44;;;;;;;6.07;3.63;;;;;;;16.13;41.36;101034.63;20811128;28;20235;-78
2023/06/05 08:46:48;;;;;;;7.05;3.58;;;;;;;16.27;40.95;101026.47;20821322;28;20197;-78
2023/06/05 08:56:52;;;;;;;7.97;3.50;;;;;;;15.96;39.76;101023.53;20783496;28;20243;-78
2023/06/05 09:06:54;;;;;;;4.50;3.20;;;;;;;16.49;38.46;101014.44;20782933;28;20493;-78
2023/06/05 09:16:57;;;;;;;9.32;3.20;;;;;;;17.18;37.24;100995.84;20792996;28;20269;-78
2023/06/05 09:27:06;;;;;;;4.30;3.08;;;;;;;17.01;36.84;101001.13;20781948;28;20235;-78
2023/06/05 09:37:10;;;;;;;7.45;3.15;;;;;;;17.13;34.97;100987.56;20783763;28;20216;-78
2023/06/05 09:47:13;;;;;;;5.28;2.75;;;;;;;17.55;36.53;100981.22;20805269;28;20525;-78
2023/06/05 09:57:15;;;;;;;4.80;2.55;;;;;;;18.12;34.98;100983.25;20804144;28;20242;-78
2023/06/05 10:07:20;;;;;;;6.20;2.58;;;;;;;18.15;34.27;100970.22;20809028;28;20192;-78
2023/06/05 10:17:23;;;;;;;3.80;2.53;;;;;;;18.42;33.65;100957.66;20774311;28;20224;-78
2023/06/05 10:27:42;;;;;;;7.20;2.60;;;;;;;18.50;33.85;100959.44;20792251;28;20197;-78
2023/06/05 10:37:56;;;;;;;5.00;2.35;;;;;;;19.01;32.31;100944.78;20802306;28;20290;-77
2023/06/05 10:47:58;;;;;;;5.60;2.88;;;;;;;19.73;31.52;100941.69;20811970;28;20208;-78
2023/06/05 10:58:00;;;;;;;5.13;2.58;;;;;;;20.20;31.43;100937.31;20817881;28;20259;-78
2023/06/05 11:08:14;;;;;;;7.50;2.45;;;;;;;20.43;30.08;100918.72;20825909;28;20254;-78
2023/06/05 11:18:28;;;;;;;5.00;2.33;;;;;;;20.78;28.97;100900.97;20813036;28;20196;-78
2023/06/05 11:28:42;;;;;;;2.20;1.90;;;;;;;20.21;28.26;100910.31;20814922;28;20270;-78
2023/06/05 11:38:53;;;;;;;8.50;2.80;;;;;;;20.49;27.71;100904.84;20816729;28;20216;-78
2023/06/05 11:48:56;;;;;;;7.18;2.05;;;;;;;20.93;27.75;100889.59;20816115;28;20612;-78
2023/06/05 11:58:58;;;;;;;4.55;2.22;;;;;;;21.43;24.72;100877.16;20811891;28;20251;-78
2023/06/05 12:09:11;;;;;;;9.75;2.30;;;;;;;21.39;25.34;100879.19;20804740;28;20216;-78
2023/06/05 12:19:18;;;;;;;7.50;2.15;;;;;;;21.70;25.42;100860.44;20829481;28;20197;-78
2023/06/05 12:29:22;;;;;;;3.00;1.48;;;;;;;22.27;24.62;100854.00;20830978;28;20213;-77
2023/06/05 12:39:24;;;;;;;4.75;1.58;;;;;;;22.03;24.43;100850.63;20834680;28;20216;-78
2023/06/05 12:49:27;;;;;;;4.80;1.83;;;;;;;22.01;24.76;100835.88;20826898;28;20278;-78
2023/06/05 12:59:29;;;;;;;3.20;1.70;;;;;;;22.17;23.05;100830.53;20854187;28;20181;-78
2023/06/05 13:09:34;;;;;;;4.57;1.80;;;;;;;22.65;23.67;100824.38;20827447;28;20737;-78
2023/06/05 13:19:36;;;;;;;2.10;1.67;;;;;;;22.56;23.14;100815.31;20830773;28;20197;-78
2023/06/05 13:29:38;;;;;;;4.35;1.48;;;;;;;22.58;23.15;100795.56;20792350;28;20219;-78
2023/06/05 13:39:40;;;;;;;6.53;1.80;;;;;;;22.75;23.76;100791.03;20824230;28;20247;-78
2023/06/05 13:49:43;;;;;;;2.63;1.40;;;;;;;22.95;21.99;100798.78;20781840;28;20233;-78
2023/06/05 13:59:45;;;;;;;2.50;1.15;;;;;;;22.51;21.90;100786.97;20786358;28;20258;-78
2023/06/05 14:09:48;;;;;;;2.28;1.23;;;;;;;23.76;22.03;100772.88;20798727;28;20228;-78
2023/06/05 14:19:50;;;;;;;2.55;1.40;;;;;;;23.34;21.76;100768.19;20808627;28;20204;-77
2023/06/05 14:29:52;;;;;;;1.55;0.93;;;;;;;23.46;20.86;100756.19;20826366;28;20216;-78
2023/06/05 14:39:55;;;;;;;3.97;1.70;;;;;;;23.18;21.52;100760.03;20860063;28;20220;-78
2023/06/05 14:49:58;;;;;;;2.58;1.35;;;;;;;23.13;20.97;100748.94;20839011;28;20279;-78
2023/06/05 15:00:01;;;;;;;2.33;1.38;;;;;;;22.59;22.46;100751.19;20815744;28;20196;-78
2023/06/05 15:10:05;;;;;;;3.55;1.90;;;;;;;23.00;23.15;100736.25;20813489;28;20220;-80
2023/06/05 15:20:08;;;;;;;6.20;1.75;;;;;;;22.12;23.34;100736.09;20832337;28;20193;-78
2023/06/05 15:30:10;;;;;;;3.15;2.10;;;;;;;21.69;24.13;100732.34;20807823;28;20216;-77
2023/06/05 15:40:13;;;;;;;2.05;1.85;;;;;;;22.09;23.77;100728.28;20801394;28;20262;-79
2023/06/05 15:50:15;;;;;;;3.30;1.95;;;;;;;22.29;24.67;100730.72;20762293;28;20593;-78
2023/06/05 16:00:18;;;;;;;3.15;2.17;;;;;;;22.23;23.73;100721.69;20780530;28;20192;-79
2023/06/05 16:10:21;;;;;;;4.60;1.73;;;;;;;21.37;24.81;100712.19;20800028;28;20219;-79
2023/06/05 16:20:23;;;;;;;4.85;2.55;;;;;;;22.23;24.35;100710.19;20813415;28;20196;-79
2023/06/05 16:30:25;;;;;;;2.10;1.85;;;;;;;21.51;23.46;100706.44;20767007;28;20259;-81
2023/06/05 16:40:28;;;;;;;4.90;2.15;;;;;;;21.91;23.16;100698.69;20799170;28;20265;-79
2023/06/05 16:50:32;;;;;;;2.78;1.60;;;;;;;21.77;24.31;100696.63;20791989;28;20259;-80
2023/06/05 17:00:36;;;;;;;5.18;1.60;;;;;;;20.76;24.89;100696.81;20749528;28;20646;-86
2023/06/05 17:10:38;;;;;;;3.15;1.42;;;;;;;21.46;24.71;100695.38;20798329;28;20679;-84
2023/06/05 17:20:41;;;;;;;2.42;1.40;;;;;;;21.45;24.60;100693.75;20790502;28;20197;-80
2023/06/05 17:30:44;;;;;;;4.05;1.40;;;;;;;21.27;24.45;100695.75;20750394;28;20244;-83
2023/06/05 17:40:46;;;;;;;2.75;1.63;;;;;;;21.07;25.22;100692.44;20742892;28;20244;-80
2023/06/05 17:50:48;;;;;;;3.70;1.60;;;;;;;21.60;24.68;100693.78;20776421;28;20260;-77
2023/06/05 18:00:51;;;;;;;2.22;1.75;;;;;;;21.18;25.94;100701.91;20783929;28;20236;-77
2023/06/05 18:10:54;;;;;;;2.88;1.98;;;;;;;20.40;27.27;100698.72;20799024;28;20255;-75
2023/06/05 18:20:56;;;;;;;2.80;2.00;;;;;;;20.27;27.21;100708.00;20791871;28;20547;-77
2023/06/05 18:30:58;;;;;;;2.55;1.73;;;;;;;20.61;26.81;100706.56;20772911;28;20284;-77
2023/06/05 18:41:01;;;;;;;2.70;1.67;;;;;;;20.26;27.06;100712.94;20782390;28;20285;-78
2023/06/05 18:51:03;;;;;;;3.85;2.00;;;;;;;19.70;28.08;100721.88;20790160;28;20708;-78
2023/06/05 19:01:06;;;;;;;2.55;1.65;;;;;;;19.62;28.25;100734.50;20798774;28;20185;-78
2023/06/05 19:11:10;;;;;;;3.33;1.73;;;;;;;19.23;29.07;100740.66;20762201;28;20688;-77
2023/06/05 19:21:13;;;;;;;9.18;1.90;;;;;;;19.59;28.52;100729.56;20756470;28;20252;-79
2023/06/05 19:31:15;;;;;;;2.50;1.90;;;;;;;19.05;29.99;100733.88;20770165;28;20414;-77
2023/06/05 19:41:18;;;;;;;4.25;1.92;;;;;;;18.69;30.75;100739.16;20771508;28;20324;-78
2023/06/05 19:51:21;;;;;;;3.40;1.90;;;;;;;18.52;30.79;100742.59;20761747;28;20248;-78
2023/06/05 20:01:24;;;;;;;5.00;2.10;;;;;;;18.50;31.03;100750.72;20755037;28;20261;-78
2023/06/05 20:11:27;;;;;;;4.38;1.70;;;;;;;17.62;32.32;100776.59;20756506;28;20348;-78
2023/06/05 20:21:32;;;;;;;3.00;1.55;;;;;;;17.79;32.58;100771.59;20719200;28;20228;-78
2023/06/05 20:31:37;;;;;;;2.63;2.15;;;;;;;17.36;33.50;100779.38;20758771;28;20243;-78
2023/06/05 20:41:39;;;;;;;3.80;2.17;;;;;;;17.10;33.87;100777.19;20789455;28;20255;-79
2023/06/05 20:51:42;;;;;;;4.72;1.75;;;;;;;17.32;33.11;100779.31;20712873;28;20339;-78
2023/06/05 21:01:44;;;;;;;4.63;1.58;;;;;;;16.97;34.23;100784.25;20730524;28;20356;-78
2023/06/05 21:11:46;;;;;;;2.75;2.10;;;;;;;16.84;34.55;100785.59;20738418;28;20304;-78
2023/06/05 21:21:49;;;;;;;4.00;1.80;;;;;;;17.01;33.42;100798.59;20716912;28;20568;-78
2023/06/05 21:31:51;;;;;;;4.88;2.20;;;;;;;17.21;33.14;100797.41;20711132;28;20343;-79
2023/06/05 21:41:54;;;;;;;2.20;2.00;;;;;;;16.22;35.99;100801.66;20714796;28;20364;-78
2023/06/05 21:51:56;;;;;;;4.47;2.13;;;;;;;15.49;38.55;100816.44;20752066;28;20313;-77
2023/06/05 22:01:58;;;;;;;3.33;1.55;;;;;;;16.40;37.29;100811.47;20787620;28;20228;-78
2023/06/05 22:12:02;;;;;;;2.90;1.75;;;;;;;15.72;39.99;100828.00;20791010;28;20313;-79
2023/06/05 22:22:05;;;;;;;2.72;2.00;;;;;;;15.76;40.18;100828.94;20800677;28;20647;-78
2023/06/05 22:32:07;;;;;;;3.38;2.38;;;;;;;15.69;41.51;100843.81;20793765;28;20247;-78
2023/06/05 22:42:10;;;;;;;4.00;2.70;;;;;;;15.39;42.82;100845.41;20805181;28;20220;-78
2023/06/05 22:52:14;;;;;;;6.60;2.63;;;;;;;15.67;43.21;100857.56;20810586;28;20651;-78
2023/06/05 23:02:17;;;;;;;5.82;2.72;;;;;;;15.28;44.24;100853.63;20822557;28;20188;-80
2023/06/05 23:12:20;;;;;;;6.82;2.78;;;;;;;15.28;45.08;100855.66;20815075;28;20220;-78
2023/06/05 23:22:23;;;;;;;4.07;2.72;;;;;;;15.15;46.03;100852.81;20799386;28;20192;-78
2023/06/05 23:32:25;;;;;;;6.40;3.20;;;;;;;15.36;45.70;100854.66;20817696;28;20259;-79
2023/06/05 23:42:28;;;;;;;4.78;3.13;;;;;;;15.17;47.17;100866.66;20809972;28;20542;-79
2023/06/05 23:52:31;;;;;;;6.03;3.63;;;;;;;14.62;49.51;100856.06;20809375;28;20306;-78
